Time;durP1;ratioP1;P1;durP2;ratioP2;P2;SDS_P1;SDS_P2;PMS_P1;PMS_P2;Temp;Humidity;BMP_temperature;BMP_pressure;BME280_temperature;BME280_humidity;BME280_pressure;Samples;Min_cycle;Max_cycle;Signal;HPM_P1;HPM_P2
2023/10/14 00:00:55;;;;;;;13.05;4.60;;;;;;;;;;5057317;28;20083;-69
2023/10/14 00:03:27;;;;;;;9.52;3.72;;;;;;;;;;5067126;28;20045;-69
2023/10/14 00:05:54;;;;;;;10.23;4.07;;;;;;;;;;5063090;28;20086;-69
2023/10/14 00:08:21;;;;;;;11.75;3.80;;;;;;;;;;5067559;28;20127;-69
2023/10/14 00:10:49;;;;;;;12.07;4.10;;;;;;;;;;5063888;28;20420;-69
2023/10/14 00:13:16;;;;;;;12.98;3.88;;;;;;;;;;5067286;28;20051;-69
2023/10/14 00:15:45;;;;;;;11.85;3.80;;;;;;;;;;5070605;28;20110;-69
2023/10/14 00:18:13;;;;;;;7.80;3.33;;;;;;;;;;5062222;28;20044;-69
2023/10/14 00:20:39;;;;;;;8.95;3.60;;;;;;;;;;5068623;28;20128;-69
2023/10/14 00:23:06;;;;;;;8.25;3.17;;;;;;;;;;5071049;28;20052;-69
2023/10/14 00:25:33;;;;;;;11.05;3.45;;;;;;;;;;5062008;28;20045;-69
2023/10/14 00:28:06;;;;;;;8.63;3.42;;;;;;;;;;5057678;28;20512;-69
2023/10/14 00:30:33;;;;;;;9.45;2.90;;;;;;;;;;5053974;28;20049;-69
2023/10/14 00:32:59;;;;;;;9.55;4.28;;;;;;;;;;5059566;28;20053;-69
2023/10/14 00:35:26;;;;;;;13.35;3.85;;;;;;;;;;5065578;28;20051;-69
2023/10/14 00:37:54;;;;;;;7.45;3.45;;;;;;;;;;5058428;28;20526;-69
2023/10/14 00:40:23;;;;;;;9.10;3.55;;;;;;;;;;5066587;28;20049;-69
2023/10/14 00:42:50;;;;;;;6.80;3.20;;;;;;;;;;5058133;28;20571;-69
2023/10/14 00:45:20;;;;;;;6.20;3.03;;;;;;;;;;5064589;28;20132;-69
2023/10/14 00:47:49;;;;;;;8.18;3.60;;;;;;;;;;5068058;28;20044;-69
2023/10/14 00:50:33;;;;;;;8.25;3.45;;;;;;;;;;5063261;28;20040;-69
2023/10/14 00:53:05;;;;;;;9.80;3.05;;;;;;;;;;5057662;28;20055;-69
2023/10/14 00:55:45;;;;;;;8.57;2.58;;;;;;;;;;5060238;28;20056;-69
2023/10/14 00:58:12;;;;;;;5.30;2.40;;;;;;;;;;5061708;28;20147;-69
2023/10/14 01:00:56;;;;;;;8.85;2.80;;;;;;;;;;5065269;28;20413;-69
2023/10/14 01:03:23;;;;;;;9.32;2.80;;;;;;;;;;5061322;28;20048;-69
2023/10/14 01:05:50;;;;;;;6.88;2.67;;;;;;;;;;5067771;28;20079;-69
2023/10/14 01:08:18;;;;;;;6.95;2.65;;;;;;;;;;5062384;28;20417;-69
2023/10/14 01:10:45;;;;;;;7.95;2.53;;;;;;;;;;5068599;28;20045;-69
2023/10/14 01:13:13;;;;;;;7.57;2.72;;;;;;;;;;5061864;28;20041;-69
2023/10/14 01:15:44;;;;;;;9.10;2.33;;;;;;;;;;5059824;28;20044;-69
2023/10/14 01:18:14;;;;;;;8.55;2.33;;;;;;;;;;5064273;28;20136;-69
2023/10/14 01:20:40;;;;;;;8.88;2.28;;;;;;;;;;5061754;28;20052;-69
2023/10/14 01:23:14;;;;;;;7.38;2.30;;;;;;;;;;5064163;28;20105;-69
2023/10/14 01:25:47;;;;;;;4.65;1.92;;;;;;;;;;5053007;28;20076;-69
2023/10/14 01:28:15;;;;;;;5.28;2.03;;;;;;;;;;5068549;28;20051;-69
2023/10/14 01:30:57;;;;;;;4.95;1.83;;;;;;;;;;5069452;28;20051;-69
2023/10/14 01:33:25;;;;;;;3.83;1.90;;;;;;;;;;5061343;28;20105;-69
2023/10/14 01:35:52;;;;;;;6.47;1.92;;;;;;;;;;5064175;28;20047;-69
2023/10/14 01:38:23;;;;;;;3.30;1.67;;;;;;;;;;5054239;28;20045;-69
2023/10/14 01:40:50;;;;;;;6.32;1.95;;;;;;;;;;5068093;28;20488;-69
2023/10/14 01:43:17;;;;;;;6.22;2.63;;;;;;;;;;5066983;28;20489;-69
2023/10/14 01:45:50;;;;;;;4.03;1.63;;;;;;;;;;5066241;28;20052;-69
2023/10/14 01:48:21;;;;;;;5.82;1.52;;;;;;;;;;5069005;28;20076;-69
2023/10/14 01:50:52;;;;;;;5.85;1.60;;;;;;;;;;5055139;28;20421;-69
2023/10/14 01:53:23;;;;;;;6.25;1.60;;;;;;;;;;5068068;28;20211;-69
2023/10/14 01:55:52;;;;;;;2.42;1.10;;;;;;;;;;5063964;28;20045;-69
2023/10/14 01:58:29;;;;;;;3.85;1.20;;;;;;;;;;5068036;28;20048;-69
2023/10/14 02:00:58;;;;;;;4.07;1.10;;;;;;;;;;5062622;28;20048;-69
2023/10/14 02:03:30;;;;;;;4.70;1.30;;;;;;;;;;5067132;28;20153;-69
2023/10/14 02:05:58;;;;;;;3.58;1.10;;;;;;;;;;5057512;28;20549;-69
2023/10/14 02:08:26;;;;;;;2.22;1.00;;;;;;;;;;5059238;28;20538;-69
2023/10/14 02:10:54;;;;;;;2.42;0.75;;;;;;;;;;5062095;28;20127;-69
2023/10/14 02:13:22;;;;;;;3.30;0.90;;;;;;;;;;5066257;28;20164;-70
2023/10/14 02:15:50;;;;;;;5.55;1.52;;;;;;;;;;5061515;28;20044;-69
2023/10/14 02:18:21;;;;;;;5.47;0.93;;;;;;;;;;5065329;28;20076;-69
2023/10/14 02:20:57;;;;;;;3.53;0.90;;;;;;;;;;5060271;28;20049;-69
2023/10/14 02:23:30;;;;;;;3.47;1.20;;;;;;;;;;5062625;28;20055;-69
2023/10/14 02:25:57;;;;;;;5.28;0.93;;;;;;;;;;5056580;28;20136;-69
2023/10/14 02:28:24;;;;;;;2.75;0.70;;;;;;;;;;5066316;28;20044;-69
2023/10/14 02:30:52;;;;;;;3.20;1.08;;;;;;;;;;5052136;28;20056;-69
2023/10/14 02:33:19;;;;;;;4.05;0.88;;;;;;;;;;5057849;28;20049;-69
2023/10/14 02:35:45;;;;;;;4.55;1.00;;;;;;;;;;5059564;28;20057;-69
2023/10/14 02:38:13;;;;;;;4.18;0.80;;;;;;;;;;5061962;28;20331;-69
2023/10/14 02:40:41;;;;;;;5.47;0.75;;;;;;;;;;5066808;28;20135;-69
2023/10/14 02:43:07;;;;;;;1.48;0.85;;;;;;;;;;5059988;28;20129;-69
2023/10/14 02:45:39;;;;;;;1.95;0.70;;;;;;;;;;5053528;28;20051;-69
2023/10/14 02:48:06;;;;;;;1.58;0.70;;;;;;;;;;5062872;28;20048;-69
2023/10/14 02:50:33;;;;;;;2.55;1.00;;;;;;;;;;5066555;28;20123;-69
2023/10/14 02:53:06;;;;;;;3.47;0.90;;;;;;;;;;5070257;28;20454;-69
2023/10/14 02:58:20;;;;;;;4.10;0.80;;;;;;;;;;5062774;28;20057;-69
2023/10/14 03:00:49;;;;;;;5.78;0.90;;;;;;;;;;5069130;28;20132;-69
2023/10/14 03:03:16;;;;;;;2.88;0.80;;;;;;;;;;5066175;28;20056;-69
2023/10/14 03:05:51;;;;;;;1.48;0.60;;;;;;;;;;5062744;28;20520;-69
2023/10/14 03:08:18;;;;;;;1.73;0.77;;;;;;;;;;5063991;28;20053;-69
2023/10/14 03:10:46;;;;;;;5.10;1.17;;;;;;;;;;5071829;28;20080;-69
2023/10/14 03:13:14;;;;;;;4.13;0.93;;;;;;;;;;5069621;28;20044;-69
2023/10/14 03:15:44;;;;;;;2.47;0.75;;;;;;;;;;5067930;28;20067;-69
2023/10/14 03:18:13;;;;;;;4.65;0.90;;;;;;;;;;5069488;28;20440;-69
2023/10/14 03:20:43;;;;;;;3.95;0.80;;;;;;;;;;5069820;28;20057;-69
2023/10/14 03:23:17;;;;;;;5.47;0.82;;;;;;;;;;5072208;28;20059;-69
2023/10/14 03:25:44;;;;;;;2.50;0.88;;;;;;;;;;5068477;28;20154;-69
2023/10/14 03:28:14;;;;;;;3.17;0.77;;;;;;;;;;5065026;28;20045;-69
2023/10/14 03:30:48;;;;;;;2.17;0.80;;;;;;;;;;5064197;28;20048;-69
2023/10/14 03:33:19;;;;;;;3.35;0.88;;;;;;;;;;5064060;28;20162;-69
2023/10/14 03:35:57;;;;;;;7.32;1.55;;;;;;;;;;5068651;28;20041;-69
2023/10/14 03:38:33;;;;;;;3.15;0.90;;;;;;;;;;5068325;28;20393;-69
2023/10/14 03:41:10;;;;;;;4.57;1.00;;;;;;;;;;5061319;28;20087;-69
2023/10/14 03:43:44;;;;;;;2.88;0.73;;;;;;;;;;5060091;28;20090;-69
2023/10/14 03:46:12;;;;;;;5.55;0.82;;;;;;;;;;5061392;28;20051;-69
2023/10/14 03:48:47;;;;;;;6.38;0.80;;;;;;;;;;5066851;28;20567;-69
2023/10/14 03:51:17;;;;;;;3.60;0.98;;;;;;;;;;5057248;28;20497;-69
2023/10/14 03:53:52;;;;;;;2.38;0.80;;;;;;;;;;5063913;28;20109;-69
2023/10/14 03:56:21;;;;;;;4.18;0.80;;;;;;;;;;5063134;28;20068;-69
2023/10/14 03:58:48;;;;;;;4.70;0.80;;;;;;;;;;5063836;28;20474;-69
2023/10/14 04:01:22;;;;;;;3.95;0.85;;;;;;;;;;5068652;28;20055;-69
2023/10/14 04:03:52;;;;;;;5.95;1.15;;;;;;;;;;5060396;28;20072;-69
2023/10/14 04:06:19;;;;;;;4.05;1.02;;;;;;;;;;5062420;28;20069;-69
2023/10/14 04:08:47;;;;;;;4.80;1.15;;;;;;;;;;5068731;28;20059;-69
2023/10/14 04:11:15;;;;;;;3.15;0.90;;;;;;;;;;5068038;28;20044;-69
2023/10/14 04:13:50;;;;;;;4.20;1.10;;;;;;;;;;5067004;28;20552;-69
2023/10/14 04:16:27;;;;;;;6.93;0.90;;;;;;;;;;5059601;28;20425;-69
2023/10/14 04:18:59;;;;;;;8.75;0.95;;;;;;;;;;5062720;28;20047;-69
2023/10/14 04:21:35;;;;;;;3.58;1.10;;;;;;;;;;5053971;28;20080;-69
2023/10/14 04:24:08;;;;;;;3.08;1.13;;;;;;;;;;5065910;28;20063;-69
2023/10/14 04:26:36;;;;;;;1.95;0.80;;;;;;;;;;5060670;28;20045;-69
2023/10/14 04:29:04;;;;;;;2.75;0.80;;;;;;;;;;5064001;28;20132;-69
2023/10/14 04:31:41;;;;;;;1.13;0.73;;;;;;;;;;5066803;28;20045;-69
2023/10/14 04:34:09;;;;;;;4.20;1.08;;;;;;;;;;5067433;28;20055;-69
2023/10/14 04:36:53;;;;;;;1.90;0.95;;;;;;;;;;5066963;28;20049;-69
2023/10/14 04:39:26;;;;;;;1.50;0.68;;;;;;;;;;5064432;28;20041;-69
2023/10/14 04:44:54;;;;;;;3.17;0.70;;;;;;;;;;5039318;28;20044;-69
2023/10/14 04:47:28;;;;;;;2.97;0.50;;;;;;;;;;5060187;28;20073;-69
2023/10/14 04:49:54;;;;;;;0.57;0.30;;;;;;;;;;5061523;28;20045;-69
2023/10/14 04:52:26;;;;;;;0.57;0.40;;;;;;;;;;5061533;28;20044;-69
2023/10/14 04:54:54;;;;;;;1.13;0.43;;;;;;;;;;5067277;28;20045;-69
2023/10/14 04:57:22;;;;;;;0.63;0.43;;;;;;;;;;5068091;28;20048;-69
2023/10/14 04:59:53;;;;;;;0.60;0.30;;;;;;;;;;5055358;28;20040;-69
2023/10/14 05:02:22;;;;;;;1.85;0.50;;;;;;;;;;5060229;28;20470;-69
2023/10/14 05:04:51;;;;;;;0.75;0.40;;;;;;;;;;5055524;28;20087;-69
2023/10/14 05:07:18;;;;;;;0.55;0.30;;;;;;;;;;5061700;28;20052;-69
2023/10/14 05:09:55;;;;;;;1.17;0.30;;;;;;;;;;5063666;28;20045;-69
2023/10/14 05:12:24;;;;;;;2.10;0.38;;;;;;;;;;5065071;28;20518;-69
2023/10/14 05:14:52;;;;;;;0.68;0.28;;;;;;;;;;5058384;28;20044;-68
2023/10/14 05:17:24;;;;;;;0.25;0.20;;;;;;;;;;5057318;28;20075;-69
2023/10/14 05:19:58;;;;;;;;;;;;;;;;;;5066290;28;20505;-69
2023/10/14 05:22:25;;;;;;;0.80;0.30;;;;;;;;;;5060348;28;19921;-69
2023/10/14 05:24:55;;;;;;;0.73;0.10;;;;;;;;;;5053084;28;20107;-69
2023/10/14 05:27:35;;;;;;;0.30;0.30;;;;;;;;;;5059849;28;20480;-68
2023/10/14 05:30:06;;;;;;;0.47;0.20;;;;;;;;;;5063881;28;20503;-69
2023/10/14 05:32:36;;;;;;;0.93;0.22;;;;;;;;;;5067007;28;20052;-69
2023/10/14 05:35:09;;;;;;;0.75;0.32;;;;;;;;;;5068232;28;20497;-69
2023/10/14 05:37:36;;;;;;;0.40;0.30;;;;;;;;;;5068644;28;20416;-69
2023/10/14 05:40:13;;;;;;;0.30;0.30;;;;;;;;;;5067877;28;20071;-69
2023/10/14 05:42:43;;;;;;;0.40;0.40;;;;;;;;;;5064570;28;20049;-69
2023/10/14 05:45:11;;;;;;;0.38;0.38;;;;;;;;;;5065489;28;20049;-69
2023/10/14 05:47:39;;;;;;;0.22;0.22;;;;;;;;;;5068663;28;20051;-69
2023/10/14 05:50:14;;;;;;;1.52;0.40;;;;;;;;;;5069914;28;20052;-69
2023/10/14 05:52:41;;;;;;;1.38;0.40;;;;;;;;;;5065754;28;20586;-69
2023/10/14 05:55:09;;;;;;;0.30;0.30;;;;;;;;;;5060287;28;20051;-69
2023/10/14 05:57:39;;;;;;;0.40;0.40;;;;;;;;;;5060242;28;20052;-69
2023/10/14 06:00:20;;;;;;;0.50;0.38;;;;;;;;;;5066679;28;20045;-69
2023/10/14 06:02:49;;;;;;;0.38;0.38;;;;;;;;;;5067801;28;20052;-69
2023/10/14 06:05:17;;;;;;;5.85;0.40;;;;;;;;;;5054216;28;20481;-68
2023/10/14 06:07:46;;;;;;;0.50;0.40;;;;;;;;;;5066643;28;20044;-69
2023/10/14 06:10:14;;;;;;;0.40;0.40;;;;;;;;;;5061102;28;20060;-69
2023/10/14 06:12:44;;;;;;;0.30;0.30;;;;;;;;;;5065846;28;20055;-69
2023/10/14 06:15:11;;;;;;;0.40;0.40;;;;;;;;;;5066536;28;20129;-69
2023/10/14 06:17:39;;;;;;;0.40;0.40;;;;;;;;;;5060846;28;20515;-69
2023/10/14 06:20:07;;;;;;;0.50;0.50;;;;;;;;;;5061302;28;20044;-69
2023/10/14 06:22:36;;;;;;;0.40;0.40;;;;;;;;;;5052588;28;20402;-69
2023/10/14 06:25:03;;;;;;;1.20;0.50;;;;;;;;;;5064762;28;20459;-69
2023/10/14 06:27:29;;;;;;;1.75;0.63;;;;;;;;;;5061907;28;20136;-69
2023/10/14 06:29:56;;;;;;;0.50;0.50;;;;;;;;;;5069981;28;20040;-69
2023/10/14 06:32:22;;;;;;;1.05;0.40;;;;;;;;;;5056756;28;20106;-69
2023/10/14 06:34:57;;;;;;;0.30;0.30;;;;;;;;;;5069591;28;20045;-68
2023/10/14 06:37:24;;;;;;;0.47;0.40;;;;;;;;;;5068369;28;20106;-69
2023/10/14 06:39:54;;;;;;;0.40;0.30;;;;;;;;;;5060923;28;20059;-69
2023/10/14 06:42:22;;;;;;;0.50;0.40;;;;;;;;;;5067444;28;20457;-69
2023/10/14 06:44:49;;;;;;;0.88;0.57;;;;;;;;;;5071259;28;20056;-69
2023/10/14 06:47:18;;;;;;;0.40;0.40;;;;;;;;;;5070659;28;20048;-69
2023/10/14 06:49:45;;;;;;;1.23;0.50;;;;;;;;;;5060945;28;20049;-69
2023/10/14 06:52:12;;;;;;;2.53;0.60;;;;;;;;;;5068451;28;20462;-69
2023/10/14 06:54:41;;;;;;;2.67;0.50;;;;;;;;;;5063551;28;20049;-69
2023/10/14 06:57:08;;;;;;;1.70;0.80;;;;;;;;;;5069806;28;20045;-69
2023/10/14 06:59:37;;;;;;;1.48;0.70;;;;;;;;;;5068314;28;20049;-69
2023/10/14 07:02:04;;;;;;;1.88;0.77;;;;;;;;;;5069317;28;20055;-68
2023/10/14 07:04:37;;;;;;;4.15;0.88;;;;;;;;;;5068513;28;20049;-69
2023/10/14 07:07:08;;;;;;;1.98;1.05;;;;;;;;;;5070352;28;20045;-69
2023/10/14 07:09:36;;;;;;;1.63;0.80;;;;;;;;;;5067063;28;20049;-69
2023/10/14 07:12:13;;;;;;;2.40;0.80;;;;;;;;;;5065599;28;20416;-69
2023/10/14 07:14:41;;;;;;;1.40;0.80;;;;;;;;;;5070144;28;20047;-68
2023/10/14 07:17:08;;;;;;;2.00;0.88;;;;;;;;;;5072182;28;20066;-69
2023/10/14 07:19:35;;;;;;;2.38;1.00;;;;;;;;;;5066201;28;20046;-69
2023/10/14 07:22:07;;;;;;;2.35;0.90;;;;;;;;;;5059107;28;20045;-69
2023/10/14 07:24:35;;;;;;;3.83;1.20;;;;;;;;;;5060527;28;20048;-69
2023/10/14 07:27:02;;;;;;;3.90;1.10;;;;;;;;;;5064114;28;20270;-69
2023/10/14 07:29:28;;;;;;;3.38;1.45;;;;;;;;;;5059805;28;20142;-69
2023/10/14 07:31:56;;;;;;;5.70;1.33;;;;;;;;;;5069755;28;20045;-69
2023/10/14 07:34:23;;;;;;;3.72;1.25;;;;;;;;;;5055382;28;20040;-69
2023/10/14 07:36:50;;;;;;;3.20;1.10;;;;;;;;;;5061628;28;20057;-69
2023/10/14 07:39:28;;;;;;;6.10;1.98;;;;;;;;;;5069290;28;20419;-69
2023/10/14 07:41:54;;;;;;;8.95;1.40;;;;;;;;;;5063710;28;20040;-68
2023/10/14 07:44:22;;;;;;;4.95;1.30;;;;;;;;;;5067179;28;20063;-69
2023/10/14 07:46:49;;;;;;;6.25;1.27;;;;;;;;;;5069150;28;20048;-68
2023/10/14 07:49:18;;;;;;;4.10;1.10;;;;;;;;;;5062778;28;20071;-68
2023/10/14 07:51:46;;;;;;;3.88;1.60;;;;;;;;;;5062651;28;20052;-69
2023/10/14 07:54:13;;;;;;;4.90;1.30;;;;;;;;;;5068818;28;20078;-69
2023/10/14 07:56:42;;;;;;;7.45;1.40;;;;;;;;;;5060878;28;20045;-69
2023/10/14 07:59:10;;;;;;;6.40;1.20;;;;;;;;;;5071768;28;20052;-68
2023/10/14 08:01:38;;;;;;;6.70;1.20;;;;;;;;;;5068810;28;20076;-69
2023/10/14 08:04:07;;;;;;;5.90;1.42;;;;;;;;;;5062985;28;20045;-69
2023/10/14 08:06:40;;;;;;;7.15;1.25;;;;;;;;;;5067419;28;20048;-69
2023/10/14 08:09:15;;;;;;;6.55;1.20;;;;;;;;;;5070849;28;20481;-69
2023/10/14 08:11:41;;;;;;;5.15;1.42;;;;;;;;;;5066896;28;20535;-69
2023/10/14 08:14:08;;;;;;;6.43;1.48;;;;;;;;;;5067995;28;20050;-69
2023/10/14 08:16:37;;;;;;;3.55;1.23;;;;;;;;;;5064163;28;20500;-68
2023/10/14 08:19:06;;;;;;;8.48;2.30;;;;;;;;;;5063386;28;20044;-69
2023/10/14 08:21:36;;;;;;;8.77;1.48;;;;;;;;;;5069763;28;20147;-68
2023/10/14 08:24:05;;;;;;;3.97;1.10;;;;;;;;;;5068054;28;20131;-69
2023/10/14 08:26:34;;;;;;;5.95;1.00;;;;;;;;;;5060000;28;20049;-69
2023/10/14 08:29:01;;;;;;;5.60;1.90;;;;;;;;;;5058171;28;20053;-69
2023/10/14 08:31:28;;;;;;;4.88;1.20;;;;;;;;;;5058291;28;20131;-69
2023/10/14 08:33:55;;;;;;;6.57;1.48;;;;;;;;;;5063827;28;20041;-69
2023/10/14 08:36:22;;;;;;;5.90;1.38;;;;;;;;;;5064260;28;20049;-68
2023/10/14 08:38:49;;;;;;;3.80;1.00;;;;;;;;;;5067433;28;20045;-69
2023/10/14 08:41:17;;;;;;;8.35;2.22;;;;;;;;;;5064129;28;20048;-68
2023/10/14 08:43:49;;;;;;;6.13;1.95;;;;;;;;;;5067623;28;20040;-70
2023/10/14 08:46:18;;;;;;;5.78;1.08;;;;;;;;;;5060668;28;20076;-71
2023/10/14 08:48:50;;;;;;;4.75;2.30;;;;;;;;;;5065104;28;20496;-71
2023/10/14 08:51:18;;;;;;;5.40;2.80;;;;;;;;;;5066510;28;20059;-68
2023/10/14 08:53:47;;;;;;;4.90;1.70;;;;;;;;;;5057861;28;20278;-68
2023/10/14 08:56:13;;;;;;;3.65;1.38;;;;;;;;;;5059575;28;20052;-68
2023/10/14 08:58:41;;;;;;;4.57;1.42;;;;;;;;;;5068997;28;20051;-68
2023/10/14 09:01:14;;;;;;;2.58;1.10;;;;;;;;;;5070743;28;20493;-68
2023/10/14 09:03:44;;;;;;;2.65;1.05;;;;;;;;;;5064564;28;20045;-68
2023/10/14 09:06:11;;;;;;;5.30;1.30;;;;;;;;;;5064965;28;20051;-68
2023/10/14 09:08:39;;;;;;;8.15;1.42;;;;;;;;;;5062107;28;20629;-68
2023/10/14 09:11:06;;;;;;;4.40;1.00;;;;;;;;;;5063234;28;20045;-67
2023/10/14 09:13:33;;;;;;;7.43;1.55;;;;;;;;;;5055441;28;20435;-68
2023/10/14 09:16:01;;;;;;;5.97;1.52;;;;;;;;;;5062607;28;20488;-67
2023/10/14 09:18:30;;;;;;;6.97;1.55;;;;;;;;;;5066292;28;20051;-67
2023/10/14 09:21:01;;;;;;;4.82;1.35;;;;;;;;;;5065993;28;20467;-67
2023/10/14 09:23:29;;;;;;;5.22;2.30;;;;;;;;;;5067931;28;20059;-67
2023/10/14 09:25:57;;;;;;;4.40;1.40;;;;;;;;;;5058658;28;20085;-67
2023/10/14 09:28:26;;;;;;;5.78;1.48;;;;;;;;;;5068408;28;20128;-68
2023/10/14 09:30:54;;;;;;;7.03;1.42;;;;;;;;;;5057259;28;20058;-68
2023/10/14 09:33:27;;;;;;;3.92;1.48;;;;;;;;;;5070594;28;20048;-68
2023/10/14 09:35:58;;;;;;;5.70;1.70;;;;;;;;;;5063316;28;20053;-68
2023/10/14 09:38:24;;;;;;;3.53;1.80;;;;;;;;;;5063767;28;20141;-67
2023/10/14 09:40:55;;;;;;;6.78;1.70;;;;;;;;;;5068988;28;20052;-67
2023/10/14 09:43:25;;;;;;;3.55;2.00;;;;;;;;;;5065075;28;20575;-67
2023/10/14 09:45:55;;;;;;;5.60;1.50;;;;;;;;;;5063176;28;20051;-67
2023/10/14 09:48:23;;;;;;;3.85;1.55;;;;;;;;;;5064150;28;20048;-67
2023/10/14 09:50:54;;;;;;;8.18;1.60;;;;;;;;;;5057045;28;20041;-68
2023/10/14 09:53:26;;;;;;;4.32;1.42;;;;;;;;;;5062889;28;20459;-67
2023/10/14 09:55:53;;;;;;;4.57;1.30;;;;;;;;;;5054656;28;20049;-67
2023/10/14 09:58:23;;;;;;;2.40;1.13;;;;;;;;;;5065827;28;20040;-67
2023/10/14 10:00:50;;;;;;;7.20;1.50;;;;;;;;;;5055991;28;20140;-67
2023/10/14 10:03:19;;;;;;;4.68;1.10;;;;;;;;;;5063058;28;20041;-67
2023/10/14 10:05:58;;;;;;;5.47;1.67;;;;;;;;;;5075235;28;20048;-67
2023/10/14 10:08:48;;;;;;;6.13;1.48;;;;;;;;;;5065981;28;20045;-67
2023/10/14 10:11:23;;;;;;;4.90;1.52;;;;;;;;;;5074754;28;20040;-67
2023/10/14 10:13:50;;;;;;;3.03;1.25;;;;;;;;;;5068782;28;20045;-67
2023/10/14 10:16:20;;;;;;;3.40;1.40;;;;;;;;;;5073920;28;20094;-68
2023/10/14 10:18:51;;;;;;;5.15;1.13;;;;;;;;;;5075096;28;20041;-67
2023/10/14 10:21:20;;;;;;;4.55;1.40;;;;;;;;;;5073400;28;20044;-67
2023/10/14 10:23:50;;;;;;;4.13;1.30;;;;;;;;;;5073320;28;20529;-67
2023/10/14 10:26:17;;;;;;;3.25;1.27;;;;;;;;;;5074279;28;20055;-68
2023/10/14 10:28:46;;;;;;;5.30;1.40;;;;;;;;;;5074996;28;20044;-67
2023/10/14 10:31:16;;;;;;;6.70;1.65;;;;;;;;;;5065471;28;20051;-67
2023/10/14 10:34:02;;;;;;;1.92;1.23;;;;;;;;;;5070841;28;20303;-67
2023/10/14 10:36:30;;;;;;;5.85;1.42;;;;;;;;;;5073161;28;20050;-67
2023/10/14 10:39:08;;;;;;;6.07;1.52;;;;;;;;;;5073962;28;20484;-67
2023/10/14 10:41:37;;;;;;;5.80;1.80;;;;;;;;;;5066371;28;20041;-67
2023/10/14 10:44:06;;;;;;;4.07;1.38;;;;;;;;;;5067793;28;20053;-68
2023/10/14 10:46:41;;;;;;;5.32;1.30;;;;;;;;;;5071701;28;20067;-67
2023/10/14 10:49:11;;;;;;;5.53;1.60;;;;;;;;;;5069978;28;20128;-67
2023/10/14 10:51:43;;;;;;;4.63;1.42;;;;;;;;;;5067020;28;20048;-67
2023/10/14 10:54:12;;;;;;;;;;;;;;;;;;5066013;28;20071;-67
2023/10/14 10:56:41;;;;;;;6.70;1.60;;;;;;;;;;5071098;28;19929;-67
2023/10/14 10:59:07;;;;;;;3.42;1.35;;;;;;;;;;5069480;28;20565;-68
2023/10/14 11:01:34;;;;;;;6.15;1.30;;;;;;;;;;5065767;28;20044;-67
2023/10/14 11:04:03;;;;;;;5.53;1.27;;;;;;;;;;5068635;28;20067;-67
2023/10/14 11:06:31;;;;;;;4.75;1.30;;;;;;;;;;5062261;28;20413;-67
2023/10/14 11:08:59;;;;;;;2.90;1.10;;;;;;;;;;5073383;28;20090;-67
2023/10/14 11:11:33;;;;;;;4.28;1.13;;;;;;;;;;5063446;28;20048;-67
2023/10/14 11:14:01;;;;;;;3.47;1.35;;;;;;;;;;5062883;28;20136;-67
2023/10/14 11:16:29;;;;;;;10.45;1.50;;;;;;;;;;5069602;28;20098;-67
2023/10/14 11:18:56;;;;;;;5.72;1.20;;;;;;;;;;5065830;28;20051;-67
2023/10/14 11:21:27;;;;;;;3.38;1.17;;;;;;;;;;5064828;28;20049;-67
2023/10/14 11:23:54;;;;;;;4.63;1.45;;;;;;;;;;5072771;28;20048;-67
2023/10/14 11:26:23;;;;;;;3.65;1.33;;;;;;;;;;5066663;28;20052;-67
2023/10/14 11:28:50;;;;;;;2.67;1.30;;;;;;;;;;5071150;28;20313;-67
2023/10/14 11:31:20;;;;;;;5.05;1.45;;;;;;;;;;5066103;28;20055;-67
2023/10/14 11:33:47;;;;;;;6.43;1.77;;;;;;;;;;5071857;28;20049;-67
2023/10/14 11:36:17;;;;;;;4.88;1.23;;;;;;;;;;5071059;28;20044;-67
2023/10/14 11:38:46;;;;;;;5.10;1.10;;;;;;;;;;5069855;28;20136;-67
2023/10/14 11:41:15;;;;;;;4.30;1.27;;;;;;;;;;5064672;28;20135;-67
2023/10/14 11:43:44;;;;;;;6.72;2.10;;;;;;;;;;5069875;28;20049;-67
2023/10/14 11:46:11;;;;;;;5.88;1.55;;;;;;;;;;5071052;28;20057;-67
2023/10/14 11:48:38;;;;;;;3.70;1.33;;;;;;;;;;5070380;28;20444;-67
2023/10/14 11:51:11;;;;;;;4.28;1.45;;;;;;;;;;5071751;28;20433;-67
2023/10/14 11:53:43;;;;;;;4.93;1.40;;;;;;;;;;5071804;28;20049;-67
2023/10/14 11:56:13;;;;;;;5.15;1.20;;;;;;;;;;5068941;28;20045;-67
2023/10/14 11:58:41;;;;;;;3.28;1.27;;;;;;;;;;5058877;28;20068;-67
2023/10/14 12:01:10;;;;;;;6.95;1.60;;;;;;;;;;5062741;28;20045;-67
2023/10/14 12:03:36;;;;;;;5.68;1.40;;;;;;;;;;5060227;28;20048;-67
2023/10/14 12:06:03;;;;;;;5.15;1.25;;;;;;;;;;5063366;28;20052;-67
2023/10/14 12:08:36;;;;;;;4.30;1.23;;;;;;;;;;5070035;28;20519;-67
2023/10/14 12:11:03;;;;;;;;;;;;;;;;;;5070791;28;20050;-68
2023/10/14 12:13:30;;;;;;;3.22;1.20;;;;;;;;;;5065069;28;19921;-67
2023/10/14 12:15:57;;;;;;;3.90;1.17;;;;;;;;;;5063138;28;20051;-67
2023/10/14 12:18:25;;;;;;;7.32;1.50;;;;;;;;;;5062297;28;20052;-67
2023/10/14 12:20:51;;;;;;;6.30;1.35;;;;;;;;;;5071169;28;20519;-67
2023/10/14 12:23:19;;;;;;;3.97;1.10;;;;;;;;;;5069945;28;20419;-67
2023/10/14 12:25:46;;;;;;;1.83;1.30;;;;;;;;;;5070084;28;20049;-67
2023/10/14 12:28:17;;;;;;;5.32;1.10;;;;;;;;;;5072078;28;20071;-67
2023/10/14 12:30:46;;;;;;;5.82;1.13;;;;;;;;;;5063610;28;20389;-67
2023/10/14 12:33:19;;;;;;;4.75;1.40;;;;;;;;;;5070719;28;20048;-67
2023/10/14 12:35:51;;;;;;;3.40;1.30;;;;;;;;;;5069052;28;20053;-67
2023/10/14 12:38:19;;;;;;;3.70;1.13;;;;;;;;;;5064969;28;20128;-67
2023/10/14 12:40:48;;;;;;;7.22;1.80;;;;;;;;;;5064970;28;20053;-67
2023/10/14 12:43:15;;;;;;;3.28;1.17;;;;;;;;;;5063443;28;20550;-68
2023/10/14 12:45:42;;;;;;;4.68;1.20;;;;;;;;;;5066897;28;20060;-67
2023/10/14 12:48:10;;;;;;;7.72;1.70;;;;;;;;;;5065597;28;20048;-67
2023/10/14 12:50:40;;;;;;;5.63;1.77;;;;;;;;;;5069309;28;20087;-68
2023/10/14 12:53:09;;;;;;;5.30;1.58;;;;;;;;;;5064057;28;20041;-67
2023/10/14 12:55:38;;;;;;;5.75;1.38;;;;;;;;;;5058452;28;20041;-67
2023/10/14 12:58:07;;;;;;;5.90;1.40;;;;;;;;;;5057743;28;20075;-67
2023/10/14 13:00:35;;;;;;;3.30;1.20;;;;;;;;;;5069365;28;20472;-67
2023/10/14 13:03:05;;;;;;;3.58;1.13;;;;;;;;;;5057612;28;20055;-67
2023/10/14 13:05:32;;;;;;;3.72;1.13;;;;;;;;;;5063672;28;20051;-67
2023/10/14 13:07:58;;;;;;;5.70;1.15;;;;;;;;;;5070563;28;20050;-67
2023/10/14 13:10:28;;;;;;;5.88;1.30;;;;;;;;;;5069279;28;20048;-67
2023/10/14 13:12:56;;;;;;;4.43;1.30;;;;;;;;;;5057791;28;20059;-67
2023/10/14 13:15:28;;;;;;;4.30;1.42;;;;;;;;;;5062864;28;20471;-67
2023/10/14 13:17:57;;;;;;;2.80;1.00;;;;;;;;;;5063626;28;20098;-67
2023/10/14 13:20:27;;;;;;;6.03;1.30;;;;;;;;;;5071129;28;20052;-67
2023/10/14 13:22:54;;;;;;;3.00;1.08;;;;;;;;;;5064108;28;20488;-67
2023/10/14 13:25:22;;;;;;;6.18;1.70;;;;;;;;;;5061763;28;20493;-67
2023/10/14 13:27:51;;;;;;;4.20;1.45;;;;;;;;;;5068464;28;20059;-67
2023/10/14 13:30:22;;;;;;;6.13;1.60;;;;;;;;;;5069242;28;20045;-67
2023/10/14 13:32:52;;;;;;;5.97;1.50;;;;;;;;;;5058405;28;20048;-67
2023/10/14 13:35:18;;;;;;;8.00;1.38;;;;;;;;;;5067699;28;20059;-67
2023/10/14 13:37:45;;;;;;;5.72;1.20;;;;;;;;;;5062443;28;20045;-67
2023/10/14 13:40:12;;;;;;;3.53;1.10;;;;;;;;;;5068119;28;20386;-68
2023/10/14 13:42:39;;;;;;;2.83;1.10;;;;;;;;;;5070277;28;20066;-67
2023/10/14 13:45:12;;;;;;;3.47;1.20;;;;;;;;;;5058300;28;20044;-67
2023/10/14 13:47:41;;;;;;;5.78;1.33;;;;;;;;;;5069327;28;20076;-67
2023/10/14 13:50:10;;;;;;;3.40;1.00;;;;;;;;;;5063502;28;20049;-67
2023/10/14 13:52:38;;;;;;;5.45;1.35;;;;;;;;;;5062183;28;20527;-67
2023/10/14 13:55:06;;;;;;;4.05;1.45;;;;;;;;;;5070856;28;20041;-67
2023/10/14 13:57:33;;;;;;;5.40;1.13;;;;;;;;;;5062539;28;20082;-67
2023/10/14 14:00:00;;;;;;;3.33;1.45;;;;;;;;;;5070823;28;20056;-67
2023/10/14 14:02:29;;;;;;;4.55;1.52;;;;;;;;;;5070942;28;20072;-67
2023/10/14 14:04:56;;;;;;;2.75;1.20;;;;;;;;;;5065042;28;20059;-68
2023/10/14 14:07:24;;;;;;;3.70;1.30;;;;;;;;;;5063470;28;20135;-68
2023/10/14 14:09:53;;;;;;;5.80;1.40;;;;;;;;;;5059502;28;20048;-67
2023/10/14 14:12:19;;;;;;;4.70;1.30;;;;;;;;;;5057806;28;20041;-67
2023/10/14 14:14:46;;;;;;;5.38;1.30;;;;;;;;;;5070531;28;20048;-68
2023/10/14 14:17:12;;;;;;;5.45;1.67;;;;;;;;;;5070654;28;20488;-67
2023/10/14 14:19:40;;;;;;;3.95;1.60;;;;;;;;;;5068441;28;20591;-67
2023/10/14 14:22:07;;;;;;;5.50;1.35;;;;;;;;;;5071046;28;20051;-67
2023/10/14 14:24:34;;;;;;;7.50;1.50;;;;;;;;;;5070545;28;20044;-67
2023/10/14 14:27:01;;;;;;;3.92;1.17;;;;;;;;;;5069384;28;20048;-67
2023/10/14 14:29:30;;;;;;;5.43;1.40;;;;;;;;;;5061172;28;20435;-68
2023/10/14 14:31:56;;;;;;;5.25;1.42;;;;;;;;;;5063637;28;20072;-67
2023/10/14 14:34:25;;;;;;;5.20;1.58;;;;;;;;;;5067543;28;20052;-67
2023/10/14 14:36:52;;;;;;;5.63;1.30;;;;;;;;;;5063438;28;20397;-68
2023/10/14 14:39:19;;;;;;;7.38;1.67;;;;;;;;;;5068354;28;20413;-67
2023/10/14 14:41:46;;;;;;;9.95;1.70;;;;;;;;;;5059263;28;20463;-67
2023/10/14 14:44:13;;;;;;;9.45;2.83;;;;;;;;;;5065088;28;20047;-67
2023/10/14 14:46:39;;;;;;;4.70;1.85;;;;;;;;;;5069892;28;20117;-67
2023/10/14 14:49:11;;;;;;;6.13;1.33;;;;;;;;;;5071773;28;20051;-67
2023/10/14 14:51:40;;;;;;;6.22;1.50;;;;;;;;;;5069898;28;20056;-67
2023/10/14 14:54:09;;;;;;;6.13;1.55;;;;;;;;;;5068859;28;20047;-67
2023/10/14 14:56:36;;;;;;;4.25;1.17;;;;;;;;;;5067506;28;20129;-67
2023/10/14 14:59:03;;;;;;;7.32;1.70;;;;;;;;;;5066838;28;20098;-67
2023/10/14 15:01:31;;;;;;;8.52;1.50;;;;;;;;;;5066035;28;20061;-67